createdAt,value
2018-03-04T00:00:09.482Z,-2.10
2018-03-04T00:02:39.883Z,-2.10
2018-03-04T00:05:11.927Z,-2.10
2018-03-04T00:07:43.576Z,-2.20
2018-03-04T00:10:14.366Z,-2.10
2018-03-04T00:12:47.069Z,-2.10
2018-03-04T00:15:18.775Z,-2.10
2018-03-04T00:17:49.313Z,-2.10
2018-03-04T00:20:20.852Z,-2.20
2018-03-04T00:22:52.023Z,-2.20
2018-03-04T00:25:23.442Z,-2.20
2018-03-04T00:27:54.776Z,-2.20
2018-03-04T00:30:25.924Z,-2.20
2018-03-04T00:32:57.455Z,-2.20
2018-03-04T00:35:28.528Z,-2.20
2018-03-04T00:38:00.012Z,-2.20
2018-03-04T00:40:30.603Z,-2.20
2018-03-04T00:43:02.323Z,-2.20
2018-03-04T00:45:34.380Z,-2.30
2018-03-04T00:48:05.714Z,-2.20
2018-03-04T00:50:36.084Z,-2.30
2018-03-04T00:53:07.801Z,-2.30
2018-03-04T00:55:38.149Z,-2.30
2018-03-04T00:58:08.962Z,-2.30
2018-03-04T01:00:41.458Z,-2.30
2018-03-04T01:03:12.167Z,-2.30
2018-03-04T01:05:42.619Z,-2.30
2018-03-04T01:08:14.226Z,-2.30
2018-03-04T01:10:45.012Z,-2.30
2018-03-04T01:13:15.600Z,-2.30
2018-03-04T01:15:47.091Z,-2.30
2018-03-04T01:18:17.449Z,-2.30
2018-03-04T01:20:47.942Z,-2.30
2018-03-04T01:23:18.627Z,-2.30
2018-03-04T01:25:50.427Z,-2.40
2018-03-04T01:28:21.004Z,-2.40
2018-03-04T01:30:51.819Z,-2.30
2018-03-04T01:33:22.442Z,-2.30
2018-03-04T01:35:52.666Z,-2.30
2018-03-04T01:38:23.383Z,-2.30
2018-03-04T01:40:53.587Z,-2.30
2018-03-04T01:43:24.015Z,-2.30
2018-03-04T01:45:54.948Z,-2.30
2018-03-04T01:48:25.200Z,-2.30
2018-03-04T01:50:55.503Z,-2.40
2018-03-04T01:53:25.755Z,-2.40
2018-03-04T01:55:55.960Z,-2.30
2018-03-04T01:58:26.284Z,-2.30
2018-03-04T02:00:57.086Z,-2.30
2018-03-04T02:03:27.636Z,-2.30
2018-03-04T02:05:57.869Z,-2.30
2018-03-04T02:08:28.306Z,-2.40
2018-03-04T02:10:58.839Z,-2.30
2018-03-04T02:13:29.532Z,-2.40
2018-03-04T02:15:59.899Z,-2.30
2018-03-04T02:18:30.124Z,-2.30
2018-03-04T02:21:00.440Z,-2.40
2018-03-04T02:23:31.550Z,-2.40
2018-03-04T02:26:02.019Z,-2.40
2018-03-04T02:28:32.599Z,-2.40
2018-03-04T02:31:02.853Z,-2.40
2018-03-04T02:33:34.688Z,-2.40
2018-03-04T02:36:04.943Z,-2.50
2018-03-04T02:38:35.339Z,-2.40
2018-03-04T02:41:05.670Z,-2.40
2018-03-04T02:43:35.907Z,-2.50
2018-03-04T02:46:06.716Z,-2.50
2018-03-04T02:48:36.918Z,-2.50
2018-03-04T02:51:07.954Z,-2.50
2018-03-04T02:53:38.216Z,-2.50
2018-03-04T02:56:08.447Z,-2.50
2018-03-04T02:58:38.521Z,-2.50
2018-03-04T03:01:09.680Z,-2.50
2018-03-04T03:03:39.952Z,-2.60
2018-03-04T03:06:10.467Z,-2.60
2018-03-04T03:08:40.767Z,-2.60
2018-03-04T03:11:11.423Z,-2.60
2018-03-04T03:13:41.795Z,-2.60
2018-03-04T03:16:13.528Z,-2.50
2018-03-04T03:18:43.763Z,-2.50
2018-03-04T03:21:13.887Z,-2.50
2018-03-04T03:23:44.798Z,-2.50
2018-03-04T03:26:15.166Z,-2.50
2018-03-04T03:28:45.489Z,-2.50
2018-03-04T03:31:16.217Z,-2.50
2018-03-04T03:33:46.540Z,-2.50
2018-03-04T03:36:17.002Z,-2.50
2018-03-04T03:38:47.359Z,-2.50
2018-03-04T03:41:18.335Z,-2.40
2018-03-04T03:43:48.963Z,-2.40
2018-03-04T03:46:19.323Z,-2.40
2018-03-04T03:48:49.795Z,-2.40
2018-03-04T03:51:21.478Z,-2.40
2018-03-04T03:53:51.752Z,-2.40
2018-03-04T03:56:22.268Z,-2.30
2018-03-04T03:58:52.526Z,-2.40
2018-03-04T04:01:23.380Z,-2.30
2018-03-04T04:03:53.647Z,-2.30
2018-03-04T04:06:23.754Z,-2.30
2018-03-04T04:08:54.487Z,-2.30
2018-03-04T04:11:25.444Z,-2.30
2018-03-04T04:13:56.243Z,-2.40
2018-03-04T04:16:26.427Z,-2.40
2018-03-04T04:18:56.683Z,-2.30
2018-03-04T04:21:26.874Z,-2.30
2018-03-04T04:23:57.829Z,-2.30
2018-03-04T04:26:28.715Z,-2.30
2018-03-04T04:29:00.516Z,-2.20
2018-03-04T04:31:31.014Z,-2.20
2018-03-04T04:34:01.189Z,-2.20
2018-03-04T04:36:31.499Z,-2.20
2018-03-04T04:39:01.834Z,-2.20
2018-03-04T04:41:31.835Z,-2.20
2018-03-04T04:44:02.087Z,-2.10
2018-03-04T04:46:32.689Z,-2.10
2018-03-04T04:49:02.786Z,-2.10
2018-03-04T04:51:32.799Z,-2.00
2018-03-04T04:54:04.064Z,-2.00
2018-03-04T04:56:34.186Z,-2.00
2018-03-04T04:59:04.327Z,-2.10
2018-03-04T05:01:34.850Z,-2.00
2018-03-04T05:04:05.599Z,-2.00
2018-03-04T05:06:35.987Z,-2.00
2018-03-04T05:09:06.857Z,-2.00
2018-03-04T05:11:37.359Z,-2.00
2018-03-04T05:14:08.255Z,-2.00
2018-03-04T05:16:38.403Z,-2.00
2018-03-04T05:19:09.830Z,-2.00
2018-03-04T05:21:39.977Z,-2.00
2018-03-04T05:24:10.901Z,-2.00
2018-03-04T05:26:41.066Z,-1.90
2018-03-04T05:29:11.719Z,-1.80
2018-03-04T05:31:42.087Z,-1.80
2018-03-04T05:34:12.534Z,-1.80
2018-03-04T05:36:42.740Z,-1.80
2018-03-04T05:39:12.986Z,-1.80
2018-03-04T05:41:43.070Z,-1.80
2018-03-04T05:44:14.074Z,-1.80
2018-03-04T05:46:45.192Z,-1.70
2018-03-04T05:49:15.380Z,-1.70
2018-03-04T05:51:45.702Z,-1.70
2018-03-04T05:54:16.387Z,-1.70
2018-03-04T05:56:48.346Z,-1.70
2018-03-04T05:59:31.917Z,-1.70
2018-03-04T06:02:08.048Z,-1.70
2018-03-04T06:04:42.963Z,-1.70
2018-03-04T06:07:17.189Z,-1.70
2018-03-04T06:09:52.848Z,-1.70
2018-03-04T06:12:27.170Z,-1.70
2018-03-04T06:14:58.170Z,-1.70
2018-03-04T06:17:28.801Z,-1.70
2018-03-04T06:19:59.045Z,-1.70
2018-03-04T06:22:29.394Z,-1.70
2018-03-04T06:24:59.539Z,-1.60
2018-03-04T06:27:29.818Z,-1.60
2018-03-04T06:30:01.520Z,-1.60
2018-03-04T06:32:32.235Z,-1.60
2018-03-04T06:35:03.220Z,-1.60
2018-03-04T06:37:33.410Z,-1.60
2018-03-04T06:40:03.748Z,-1.60
2018-03-04T06:42:34.012Z,-1.60
2018-03-04T06:45:04.601Z,-1.50
2018-03-04T06:47:35.247Z,-1.50
2018-03-04T06:50:05.603Z,-1.50
2018-03-04T06:52:35.876Z,-1.40
2018-03-04T06:55:07.662Z,-1.40
2018-03-04T06:57:39.382Z,-1.40
2018-03-04T07:00:10.425Z,-1.30
2018-03-04T07:02:40.749Z,-1.40
2018-03-04T07:05:11.215Z,-1.40
2018-03-04T07:07:41.619Z,-1.40
2018-03-04T07:10:11.652Z,-1.40
2018-03-04T07:12:42.650Z,-1.30
2018-03-04T07:15:12.968Z,-1.30
2018-03-04T07:17:43.381Z,-1.30
2018-03-04T07:20:14.739Z,-1.30
2018-03-04T07:22:45.064Z,-1.30
2018-03-04T07:25:15.385Z,-1.20
2018-03-04T07:27:45.650Z,-1.20
2018-03-04T07:30:15.666Z,-1.20
2018-03-04T07:32:46.978Z,-1.20
2018-03-04T07:35:17.504Z,-1.20
2018-03-04T07:37:48.458Z,-1.00
2018-03-04T07:40:19.685Z,-1.00
2018-03-04T07:42:52.999Z,-0.90
2018-03-04T07:45:23.499Z,-0.90
2018-03-04T07:47:53.950Z,-0.90
2018-03-04T07:50:25.060Z,-0.90
2018-03-04T07:52:55.520Z,-0.80
2018-03-04T07:55:25.858Z,-0.80
2018-03-04T07:57:56.442Z,-0.70
2018-03-04T08:00:29.298Z,-0.60
2018-03-04T08:03:00.391Z,-0.50
2018-03-04T08:05:30.485Z,-0.60
2018-03-04T08:08:01.348Z,-0.50
2018-03-04T08:10:31.740Z,-0.40
2018-03-04T08:13:02.031Z,-0.40
2018-03-04T08:15:32.032Z,-0.40
2018-03-04T08:18:02.237Z,-0.50
2018-03-04T08:20:32.880Z,-0.50
2018-03-04T08:23:03.274Z,-0.40
2018-03-04T08:25:35.435Z,-0.40
2018-03-04T08:28:18.026Z,-0.30
2018-03-04T08:30:49.226Z,-0.20
2018-03-04T08:33:19.505Z,-0.20
2018-03-04T08:35:50.715Z,-0.10
2018-03-04T08:38:21.896Z,-0.10
2018-03-04T08:40:52.479Z,-0.10
2018-03-04T08:43:23.293Z,0.00
2018-03-04T08:45:53.479Z,0.00
2018-03-04T08:48:24.352Z,0.00
2018-03-04T08:50:55.403Z,0.10
2018-03-04T08:53:25.916Z,0.10
2018-03-04T08:55:56.271Z,0.10
2018-03-04T08:58:28.623Z,0.20
2018-03-04T09:00:58.918Z,0.20
2018-03-04T09:03:29.201Z,0.30
2018-03-04T09:05:59.685Z,0.40
2018-03-04T09:08:31.469Z,0.40
2018-03-04T09:11:02.326Z,0.50
2018-03-04T09:13:32.705Z,0.50
2018-03-04T09:16:02.905Z,0.40
2018-03-04T09:18:33.539Z,0.40
2018-03-04T09:21:03.814Z,0.40
2018-03-04T09:23:33.973Z,0.60
2018-03-04T09:26:04.092Z,0.70
2018-03-04T09:28:34.749Z,0.70
2018-03-04T09:31:05.356Z,0.70
2018-03-04T09:33:35.795Z,0.80
2018-03-04T09:36:06.126Z,0.80
2018-03-04T09:38:36.130Z,1.00
2018-03-04T09:41:06.395Z,1.10
2018-03-04T09:43:36.623Z,1.10
2018-03-04T09:46:07.144Z,1.10
2018-03-04T09:48:37.402Z,1.20
2018-03-04T09:51:07.659Z,1.20
2018-03-04T09:53:37.671Z,1.20
2018-03-04T09:56:07.930Z,1.20
2018-03-04T09:58:38.061Z,1.30
2018-03-04T10:01:09.403Z,1.50
2018-03-04T10:03:39.403Z,1.50
2018-03-04T10:06:09.573Z,1.60
2018-03-04T10:08:40.982Z,1.60
2018-03-04T10:11:11.662Z,1.60
2018-03-04T10:13:42.435Z,1.70
2018-03-04T10:16:12.544Z,1.70
2018-03-04T10:18:43.338Z,1.80
2018-03-04T10:21:14.770Z,2.10
2018-03-04T10:23:44.946Z,2.10
2018-03-04T10:26:15.735Z,2.10
2018-03-04T10:28:46.909Z,2.30
2018-03-04T10:31:17.219Z,2.30
2018-03-04T10:33:47.538Z,2.30
2018-03-04T10:36:18.261Z,2.40
2018-03-04T10:38:48.547Z,2.40
2018-03-04T10:41:19.047Z,2.60
2018-03-04T10:43:49.252Z,2.70
2018-03-04T10:46:19.498Z,2.80
2018-03-04T10:48:49.599Z,2.90
2018-03-04T10:51:19.674Z,2.90
2018-03-04T10:53:50.355Z,3.00
2018-03-04T10:56:20.792Z,3.00
2018-03-04T10:58:50.933Z,3.00
2018-03-04T11:01:25.660Z,3.10
2018-03-04T11:03:56.061Z,3.30
2018-03-04T11:06:26.923Z,3.30
2018-03-04T11:08:57.347Z,3.20
2018-03-04T11:11:27.390Z,3.30
2018-03-04T11:13:58.525Z,3.70
2018-03-04T11:16:29.953Z,3.60
2018-03-04T11:19:01.453Z,3.90
2018-03-04T11:21:31.536Z,4.00
2018-03-04T11:24:01.669Z,4.40
2018-03-04T11:26:32.470Z,4.20
2018-03-04T11:29:05.452Z,4.20
2018-03-04T11:31:36.196Z,4.10
2018-03-04T11:34:06.672Z,4.40
2018-03-04T11:36:37.225Z,4.60
2018-03-04T11:39:08.452Z,4.70
2018-03-04T11:41:38.555Z,5.20
2018-03-04T11:44:08.892Z,5.70
2018-03-04T11:46:38.933Z,5.60
2018-03-04T11:49:16.342Z,5.90
2018-03-04T11:51:46.655Z,6.20
2018-03-04T11:54:16.709Z,6.70
2018-03-04T11:56:47.829Z,7.20
2018-03-04T11:59:23.745Z,7.10
2018-03-04T12:01:54.024Z,8.00
2018-03-04T12:04:24.089Z,8.60
2018-03-04T12:06:55.314Z,8.80
2018-03-04T12:09:26.462Z,8.80
2018-03-04T12:11:56.712Z,8.20
2018-03-04T12:14:26.801Z,7.80
2018-03-04T12:16:57.528Z,8.00
2018-03-04T12:19:27.550Z,8.50
2018-03-04T12:21:57.674Z,8.80
2018-03-04T12:24:28.359Z,8.70
2018-03-04T12:26:58.399Z,8.70
2018-03-04T12:29:29.290Z,8.80
2018-03-04T12:31:59.679Z,8.80
2018-03-04T12:34:30.754Z,9.40
2018-03-04T12:37:01.180Z,9.40
2018-03-04T12:39:31.221Z,8.70
2018-03-04T12:42:01.306Z,8.40
2018-03-04T12:44:31.453Z,8.70
2018-03-04T12:47:01.575Z,9.00
2018-03-04T12:49:31.574Z,9.60
2018-03-04T12:52:02.000Z,9.90
2018-03-04T12:54:32.200Z,9.70
2018-03-04T12:57:02.231Z,9.60
2018-03-04T12:59:32.347Z,9.50
2018-03-04T13:02:03.219Z,9.30
2018-03-04T13:04:33.992Z,9.40
2018-03-04T13:07:04.354Z,9.40
2018-03-04T13:09:35.199Z,9.40
2018-03-04T13:12:05.316Z,9.20
2018-03-04T13:14:36.055Z,10.00
2018-03-04T13:17:06.531Z,10.10
2018-03-04T13:19:36.918Z,10.30
2018-03-04T13:22:06.942Z,10.40
2018-03-04T13:24:37.015Z,9.90
2018-03-04T13:27:08.391Z,9.60
2018-03-04T13:29:38.541Z,9.90
2018-03-04T13:32:09.548Z,9.40
2018-03-04T13:34:40.289Z,9.40
2018-03-04T13:37:10.923Z,9.60
2018-03-04T13:39:40.995Z,9.40
2018-03-04T13:42:11.047Z,9.50
2018-03-04T13:44:42.489Z,9.30
2018-03-04T13:47:13.814Z,9.20
2018-03-04T13:49:44.218Z,9.10
2018-03-04T13:52:15.116Z,9.30
2018-03-04T13:54:46.315Z,9.30
2018-03-04T13:57:17.602Z,9.40
2018-03-04T13:59:47.789Z,9.40
2018-03-04T14:02:17.862Z,9.30
2018-03-04T14:04:48.310Z,9.50
2018-03-04T14:07:19.410Z,9.60
2018-03-04T14:09:49.470Z,9.60
2018-03-04T14:12:20.297Z,9.90
2018-03-04T14:14:51.213Z,9.90
2018-03-04T14:17:21.223Z,9.60
2018-03-04T14:19:51.294Z,9.70
2018-03-04T14:22:21.470Z,9.60
2018-03-04T14:24:52.091Z,9.30
2018-03-04T14:27:22.294Z,9.10
2018-03-04T14:29:53.495Z,9.60
2018-03-04T14:32:24.299Z,9.40
2018-03-04T14:34:54.626Z,9.40
2018-03-04T14:37:25.311Z,9.50
2018-03-04T14:39:56.287Z,9.50
2018-03-04T14:42:26.831Z,9.80
2018-03-04T14:44:58.414Z,9.10
2018-03-04T14:47:29.306Z,9.10
2018-03-04T14:50:00.539Z,9.00
2018-03-04T14:52:30.586Z,9.00
2018-03-04T14:55:00.647Z,9.00
2018-03-04T14:57:30.695Z,9.00
2018-03-04T15:00:03.408Z,8.70
2018-03-04T15:02:34.054Z,8.90
2018-03-04T15:05:05.032Z,9.10
2018-03-04T15:07:35.385Z,9.10
2018-03-04T15:10:06.233Z,8.70
2018-03-04T15:12:36.489Z,8.70
2018-03-04T15:15:06.989Z,8.90
2018-03-04T15:17:37.124Z,9.00
2018-03-04T15:20:08.128Z,8.70
2018-03-04T15:22:38.171Z,8.70
2018-03-04T15:25:09.511Z,8.70
2018-03-04T15:27:39.578Z,8.70
2018-03-04T15:30:09.631Z,8.60
2018-03-04T15:32:40.471Z,8.40
2018-03-04T15:35:10.591Z,8.40
2018-03-04T15:37:41.503Z,8.20
2018-03-04T15:40:11.967Z,8.20
2018-03-04T15:42:42.014Z,8.00
2018-03-04T15:45:12.131Z,7.90
2018-03-04T15:47:42.167Z,7.90
2018-03-04T15:50:12.708Z,7.80
2018-03-04T15:52:42.925Z,7.90
2018-03-04T15:55:13.358Z,7.70
2018-03-04T15:57:43.754Z,7.70
2018-03-04T16:00:14.036Z,7.60
2018-03-04T16:02:44.157Z,7.60
2018-03-04T16:05:14.224Z,7.60
2018-03-04T16:07:44.263Z,7.60
2018-03-04T16:10:14.648Z,7.50
2018-03-04T16:12:45.539Z,7.50
2018-03-04T16:15:16.020Z,7.40
2018-03-04T16:17:46.148Z,7.30
2018-03-04T16:20:16.449Z,7.20
2018-03-04T16:22:46.616Z,7.10
2018-03-04T16:25:17.407Z,7.10
2018-03-04T16:27:47.489Z,7.00
2018-03-04T16:30:17.534Z,7.00
2018-03-04T16:32:48.730Z,6.90
2018-03-04T16:35:18.774Z,6.80
2018-03-04T16:37:49.033Z,6.70
2018-03-04T16:40:20.078Z,6.60
2018-03-04T16:42:50.333Z,6.60
2018-03-04T16:45:21.143Z,6.50
2018-03-04T16:47:51.536Z,6.40
2018-03-04T16:50:21.595Z,6.40
2018-03-04T16:52:52.011Z,6.20
2018-03-04T16:55:22.346Z,6.10
2018-03-04T16:57:52.394Z,6.10
2018-03-04T17:00:22.502Z,6.00
2018-03-04T17:02:52.900Z,5.90
2018-03-04T17:05:23.162Z,5.80
2018-03-04T17:07:53.298Z,5.80
2018-03-04T17:10:24.410Z,5.70
2018-03-04T17:12:55.531Z,5.60
2018-03-04T17:15:25.615Z,5.60
2018-03-04T17:17:56.432Z,5.50
2018-03-04T17:20:26.450Z,5.50
2018-03-04T17:22:58.002Z,5.30
2018-03-04T17:25:27.999Z,5.30
2018-03-04T17:27:58.570Z,5.20
2018-03-04T17:30:29.432Z,5.20
2018-03-04T17:33:00.688Z,5.10
2018-03-04T17:35:30.726Z,5.10
2018-03-04T17:38:01.033Z,5.10
2018-03-04T17:40:31.090Z,5.00
2018-03-04T17:43:01.966Z,4.90
2018-03-04T17:45:32.287Z,4.90
2018-03-04T17:48:02.311Z,4.80
2018-03-04T17:50:32.784Z,4.80
2018-03-04T17:53:02.814Z,4.80
2018-03-04T17:55:40.077Z,4.70
2018-03-04T17:58:10.211Z,4.70
2018-03-04T18:00:40.394Z,4.70
2018-03-04T18:03:10.736Z,4.60
2018-03-04T18:05:40.935Z,4.50
2018-03-04T18:08:12.029Z,4.40
2018-03-04T18:10:43.779Z,4.40
2018-03-04T18:13:14.151Z,4.30
2018-03-04T18:15:45.689Z,4.20
2018-03-04T18:18:17.283Z,4.30
2018-03-04T18:20:47.586Z,4.20
2018-03-04T18:23:22.045Z,4.30
2018-03-04T18:25:54.531Z,4.20
2018-03-04T18:28:25.264Z,4.20
2018-03-04T18:30:55.644Z,4.10
2018-03-04T18:33:26.000Z,4.10
2018-03-04T18:35:56.233Z,4.10
2018-03-04T18:38:27.098Z,4.00
2018-03-04T18:40:58.780Z,4.00
2018-03-04T18:43:29.687Z,3.90
2018-03-04T18:46:00.640Z,4.00
2018-03-04T18:48:32.240Z,4.00
2018-03-04T18:51:03.887Z,4.00
2018-03-04T18:53:34.267Z,3.90
2018-03-04T18:56:04.607Z,3.90
2018-03-04T18:58:34.699Z,3.80
2018-03-04T19:01:05.558Z,3.80
2018-03-04T19:03:35.977Z,3.80
2018-03-04T19:06:06.013Z,3.70
2018-03-04T19:08:36.045Z,3.70
2018-03-04T19:11:06.264Z,3.80
2018-03-04T19:13:37.089Z,3.70
2018-03-04T19:16:07.112Z,3.70
2018-03-04T19:18:37.149Z,3.70
2018-03-04T19:21:08.185Z,3.70
2018-03-04T19:23:38.907Z,3.70
2018-03-04T19:26:09.033Z,3.70
2018-03-04T19:28:39.692Z,3.70
2018-03-04T19:31:10.022Z,3.70
2018-03-04T19:33:42.726Z,3.70
2018-03-04T19:36:13.736Z,3.70
2018-03-04T19:38:44.125Z,3.70
2018-03-04T19:41:14.539Z,3.70
2018-03-04T19:43:44.975Z,3.70
2018-03-04T19:46:15.090Z,3.80
2018-03-04T19:48:45.932Z,3.80
2018-03-04T19:51:16.260Z,3.80
2018-03-04T19:53:47.205Z,3.90
2018-03-04T19:56:17.566Z,3.80
2018-03-04T19:58:48.378Z,3.90
2018-03-04T20:01:20.309Z,3.90
2018-03-04T20:03:51.071Z,3.90
2018-03-04T20:06:22.257Z,4.00
2018-03-04T20:08:52.956Z,3.90
2018-03-04T20:11:24.378Z,4.00
2018-03-04T20:14:57.468Z,4.00
2018-03-04T20:17:27.630Z,4.00
2018-03-04T20:19:58.334Z,4.00
2018-03-04T20:22:29.724Z,3.90
2018-03-04T20:24:59.977Z,3.90
2018-03-04T20:27:30.084Z,4.00
2018-03-04T20:30:00.779Z,3.90
2018-03-04T20:32:31.234Z,3.90
2018-03-04T20:35:01.305Z,3.80
2018-03-04T20:37:32.403Z,3.80
2018-03-04T20:43:07.164Z,3.90
2018-03-04T20:45:39.480Z,3.90
2018-03-04T20:48:09.609Z,3.90
2018-03-04T20:50:41.241Z,3.90
2018-03-04T20:53:11.306Z,3.90
2018-03-04T20:55:41.943Z,3.90
2018-03-04T20:58:12.273Z,3.90
2018-03-04T21:00:42.407Z,3.90
2018-03-04T21:03:12.588Z,4.00
2018-03-04T21:05:43.398Z,4.00
2018-03-04T21:08:14.369Z,4.00
2018-03-04T21:10:44.651Z,4.00
2018-03-04T21:13:14.968Z,4.00
2018-03-04T21:15:45.537Z,4.10
2018-03-04T21:18:16.441Z,4.10
2018-03-04T21:20:47.524Z,4.10
2018-03-04T21:23:17.750Z,4.10
2018-03-04T21:25:48.700Z,4.10
2018-03-04T21:28:18.714Z,4.10
2018-03-04T21:30:49.830Z,4.10
2018-03-04T21:33:21.186Z,4.10
2018-03-04T21:44:06.209Z,4.00
2018-03-04T21:46:36.939Z,4.00
2018-03-04T21:49:07.421Z,3.90
2018-03-04T21:51:37.728Z,3.90
2018-03-04T21:54:08.094Z,3.90
2018-03-04T21:56:39.280Z,3.80
2018-03-04T21:59:09.858Z,3.80
2018-03-04T22:01:40.433Z,3.90
2018-03-04T22:04:10.806Z,3.80
2018-03-04T22:06:40.795Z,3.70
2018-03-04T22:09:11.267Z,3.70
2018-03-04T22:11:41.751Z,3.80
2018-03-04T22:14:13.329Z,3.80
2018-03-04T22:16:44.032Z,3.80
2018-03-04T22:19:15.001Z,3.80
2018-03-04T22:21:45.358Z,3.80
2018-03-04T22:24:16.467Z,3.80
2018-03-04T22:26:47.326Z,3.80
2018-03-04T22:29:17.399Z,3.80
2018-03-04T22:31:47.834Z,3.80
2018-03-04T22:34:18.185Z,3.80
2018-03-04T22:36:49.566Z,3.90
2018-03-04T22:39:21.364Z,3.90
2018-03-04T22:41:51.584Z,3.90
2018-03-04T22:44:22.988Z,4.00
2018-03-04T22:46:53.197Z,4.00
2018-03-04T22:49:23.802Z,4.00
2018-03-04T22:51:54.657Z,4.00
2018-03-04T22:54:31.402Z,4.20
2018-03-04T22:57:01.862Z,4.20
2018-03-04T22:59:32.507Z,4.20
2018-03-04T23:02:03.530Z,4.30
2018-03-04T23:04:34.955Z,4.30
2018-03-04T23:07:05.198Z,4.30
2018-03-04T23:09:35.379Z,4.30
2018-03-04T23:12:05.969Z,4.30
2018-03-04T23:14:36.554Z,4.30
2018-03-04T23:17:06.543Z,4.40
2018-03-04T23:19:36.756Z,4.30
2018-03-04T23:22:07.027Z,4.40
2018-03-04T23:24:37.923Z,4.40
2018-03-04T23:27:08.247Z,4.40
2018-03-04T23:29:38.576Z,4.40
2018-03-04T23:32:09.134Z,4.30
2018-03-04T23:34:39.277Z,4.30
2018-03-04T23:37:09.793Z,4.30
2018-03-04T23:39:39.868Z,4.30
2018-03-04T23:42:10.058Z,4.40
2018-03-04T23:44:41.058Z,4.70
2018-03-04T23:47:11.063Z,4.70
2018-03-04T23:49:41.229Z,4.90
2018-03-04T23:52:11.644Z,5.10
2018-03-04T23:54:41.992Z,5.30
2018-03-04T23:57:13.019Z,5.40
2018-03-04T23:59:43.136Z,5.40
